createdAt,value
2018-10-07T00:01:36.140Z,6.67
2018-10-07T00:04:04.519Z,6.63
2018-10-07T00:06:33.151Z,6.66
2018-10-07T00:09:01.328Z,6.71
2018-10-07T00:11:29.565Z,6.67
2018-10-07T00:13:57.724Z,6.61
2018-10-07T00:16:25.926Z,6.61
2018-10-07T00:18:54.014Z,6.66
2018-10-07T00:21:22.132Z,6.49
2018-10-07T00:23:50.326Z,6.56
2018-10-07T00:26:18.588Z,6.58
2018-10-07T00:28:46.729Z,6.47
2018-10-07T00:31:15.032Z,6.43
2018-10-07T00:33:43.219Z,6.47
2018-10-07T00:36:11.388Z,6.46
2018-10-07T00:38:39.498Z,6.34
2018-10-07T00:41:07.761Z,6.37
2018-10-07T00:43:35.952Z,6.34
2018-10-07T00:46:04.287Z,6.28
2018-10-07T00:48:32.535Z,6.28
2018-10-07T00:51:00.876Z,6.30
2018-10-07T00:53:28.951Z,6.19
2018-10-07T00:55:57.200Z,6.10
2018-10-07T00:58:25.387Z,6.08
2018-10-07T01:00:53.514Z,6.16
2018-10-07T01:03:21.637Z,6.12
2018-10-07T01:05:49.836Z,6.01
2018-10-07T01:08:18.072Z,5.93
2018-10-07T01:10:46.257Z,5.79
2018-10-07T01:13:14.390Z,5.77
2018-10-07T01:15:43.559Z,5.73
2018-10-07T01:18:11.703Z,5.94
2018-10-07T01:20:39.897Z,5.98
2018-10-07T01:23:08.279Z,5.78
2018-10-07T01:25:36.421Z,5.82
2018-10-07T01:28:04.587Z,5.87
2018-10-07T01:30:32.823Z,5.72
2018-10-07T01:33:00.924Z,5.66
2018-10-07T01:35:29.055Z,5.87
2018-10-07T01:37:57.179Z,5.73
2018-10-07T01:40:25.414Z,5.59
2018-10-07T01:42:53.578Z,5.57
2018-10-07T01:45:21.700Z,5.59
2018-10-07T01:47:49.867Z,5.45
2018-10-07T01:50:17.993Z,5.42
2018-10-07T01:52:46.218Z,5.42
2018-10-07T01:55:14.318Z,5.37
2018-10-07T01:57:42.415Z,5.35
2018-10-07T02:00:10.576Z,5.32
2018-10-07T02:02:38.710Z,5.30
2018-10-07T02:05:06.886Z,5.32
2018-10-07T02:07:35.202Z,5.41
2018-10-07T02:10:03.306Z,5.45
2018-10-07T02:12:31.473Z,5.31
2018-10-07T02:14:59.591Z,5.30
2018-10-07T02:17:27.857Z,5.35
2018-10-07T02:19:56.140Z,5.46
2018-10-07T02:22:24.350Z,5.40
2018-10-07T02:24:52.506Z,5.44
2018-10-07T02:27:20.519Z,5.42
2018-10-07T02:29:48.664Z,5.44
2018-10-07T02:32:16.891Z,5.40
2018-10-07T02:34:45.023Z,5.35
2018-10-07T02:37:13.185Z,5.35
2018-10-07T02:39:41.372Z,5.31
2018-10-07T02:42:09.497Z,5.25
2018-10-07T02:44:37.693Z,5.30
2018-10-07T02:47:06.390Z,5.30
2018-10-07T02:49:34.510Z,5.23
2018-10-07T02:52:02.649Z,5.29
2018-10-07T02:54:30.885Z,5.23
2018-10-07T02:56:59.076Z,5.07
2018-10-07T02:59:27.560Z,5.05
2018-10-07T03:01:55.685Z,4.93
2018-10-07T03:04:23.923Z,4.84
2018-10-07T03:06:52.125Z,4.88
2018-10-07T03:09:20.194Z,4.92
2018-10-07T03:11:48.383Z,4.81
2018-10-07T03:14:16.543Z,4.82
2018-10-07T03:16:44.762Z,4.85
2018-10-07T03:19:13.068Z,4.69
2018-10-07T03:21:41.260Z,4.55
2018-10-07T03:24:09.464Z,4.50
2018-10-07T03:26:38.011Z,4.39
2018-10-07T03:29:06.546Z,4.43
2018-10-07T03:31:34.718Z,4.44
2018-10-07T03:34:02.985Z,4.44
2018-10-07T03:36:31.108Z,4.39
2018-10-07T03:38:59.274Z,4.42
2018-10-07T03:41:27.637Z,4.44
2018-10-07T03:43:56.009Z,4.37
2018-10-07T03:46:24.201Z,4.23
2018-10-07T03:48:52.366Z,4.14
2018-10-07T03:51:20.629Z,4.26
2018-10-07T03:53:48.766Z,4.16
2018-10-07T03:56:16.884Z,4.07
2018-10-07T03:58:45.008Z,4.02
2018-10-07T04:01:13.440Z,3.96
2018-10-07T04:03:41.743Z,3.96
2018-10-07T04:06:09.920Z,3.98
2018-10-07T04:08:38.165Z,3.94
2018-10-07T04:11:06.692Z,3.96
2018-10-07T04:13:35.008Z,3.96
2018-10-07T04:16:03.339Z,3.94
2018-10-07T04:18:31.573Z,3.97
2018-10-07T04:21:00.169Z,3.95
2018-10-07T04:23:28.341Z,3.87
2018-10-07T04:25:56.564Z,3.75
2018-10-07T04:28:24.636Z,3.77
2018-10-07T04:30:52.819Z,3.85
2018-10-07T04:33:20.884Z,4.04
2018-10-07T04:35:48.895Z,4.07
2018-10-07T04:38:17.065Z,3.89
2018-10-07T04:40:45.205Z,3.86
2018-10-07T04:43:13.268Z,4.02
2018-10-07T04:45:41.276Z,3.94
2018-10-07T04:48:09.717Z,3.97
2018-10-07T04:50:37.830Z,3.93
2018-10-07T04:53:06.548Z,3.96
2018-10-07T04:55:34.697Z,4.01
2018-10-07T04:58:02.734Z,4.04
2018-10-07T05:00:30.805Z,4.13
2018-10-07T05:02:58.898Z,4.24
2018-10-07T05:05:27.399Z,4.26
2018-10-07T05:07:55.636Z,4.25
2018-10-07T05:10:58.778Z,4.29
2018-10-07T05:13:32.366Z,4.34
2018-10-07T05:16:03.002Z,4.34
2018-10-07T05:18:32.235Z,4.41
2018-10-07T05:21:00.762Z,4.60
2018-10-07T05:23:29.058Z,5.13
2018-10-07T05:25:57.385Z,5.98
2018-10-07T05:28:27.806Z,6.65
2018-10-07T05:30:56.449Z,7.09
2018-10-07T05:33:24.983Z,7.34
2018-10-07T05:35:53.206Z,7.68
2018-10-07T05:38:22.078Z,7.95
2018-10-07T05:40:51.503Z,8.15
2018-10-07T05:43:21.092Z,8.16
2018-10-07T05:45:51.616Z,8.00
2018-10-07T05:48:20.073Z,8.11
2018-10-07T05:50:48.820Z,8.15
2018-10-07T05:53:18.112Z,8.14
2018-10-07T05:55:46.852Z,8.00
2018-10-07T05:58:15.679Z,7.88
2018-10-07T06:00:44.852Z,7.71
2018-10-07T06:03:20.882Z,7.66
2018-10-07T06:05:51.152Z,7.81
2018-10-07T06:08:23.227Z,8.16
2018-10-07T06:10:52.337Z,8.45
2018-10-07T06:13:21.066Z,8.57
2018-10-07T06:15:49.748Z,8.72
2018-10-07T06:18:19.189Z,8.98
2018-10-07T06:20:48.286Z,9.10
2018-10-07T06:23:16.957Z,9.41
2018-10-07T06:25:46.354Z,9.61
2018-10-07T06:28:15.397Z,9.75
2018-10-07T06:30:44.484Z,9.71
2018-10-07T06:33:14.880Z,9.76
2018-10-07T06:35:44.040Z,10.10
2018-10-07T06:38:12.738Z,10.14
2018-10-07T06:40:41.793Z,10.07
2018-10-07T06:43:10.542Z,10.44
2018-10-07T06:45:39.213Z,10.50
2018-10-07T06:48:11.569Z,10.47
2018-10-07T06:50:40.782Z,10.93
2018-10-07T06:53:13.163Z,11.26
2018-10-07T06:55:41.774Z,10.98
2018-10-07T06:58:11.065Z,10.94
2018-10-07T07:00:39.710Z,11.05
2018-10-07T07:03:08.542Z,11.34
2018-10-07T07:05:40.183Z,11.49
2018-10-07T07:08:10.809Z,11.49
2018-10-07T07:10:39.473Z,11.50
2018-10-07T07:13:08.000Z,11.71
2018-10-07T07:15:36.439Z,11.77
2018-10-07T07:18:04.978Z,11.86
2018-10-07T07:20:33.417Z,11.70
2018-10-07T07:23:01.754Z,11.64
2018-10-07T07:25:30.152Z,11.67
2018-10-07T07:27:58.608Z,12.13
2018-10-07T07:30:27.266Z,12.43
2018-10-07T07:32:55.978Z,12.52
2018-10-07T07:35:24.358Z,12.37
2018-10-07T07:37:52.967Z,12.74
2018-10-07T07:40:21.388Z,12.82
2018-10-07T07:42:49.799Z,13.26
2018-10-07T07:45:18.325Z,13.51
2018-10-07T07:47:46.757Z,13.33
2018-10-07T07:50:15.335Z,13.48
2018-10-07T07:52:43.963Z,13.76
2018-10-07T07:55:12.506Z,13.76
2018-10-07T07:57:41.103Z,13.67
2018-10-07T08:00:09.594Z,13.64
2018-10-07T08:02:38.991Z,13.86
2018-10-07T08:05:07.552Z,13.74
2018-10-07T08:07:36.450Z,13.83
2018-10-07T08:10:05.609Z,14.21
2018-10-07T08:12:34.843Z,14.52
2018-10-07T08:15:03.656Z,14.96
2018-10-07T08:17:34.253Z,15.01
2018-10-07T08:20:02.835Z,15.35
2018-10-07T08:22:32.414Z,15.39
2018-10-07T08:25:00.961Z,15.47
2018-10-07T08:27:29.752Z,15.61
2018-10-07T08:29:58.092Z,16.27
2018-10-07T08:32:26.443Z,16.38
2018-10-07T08:34:54.791Z,16.45
2018-10-07T08:37:23.166Z,16.69
2018-10-07T08:39:51.422Z,16.45
2018-10-07T08:42:19.811Z,16.33
2018-10-07T08:44:48.124Z,16.56
2018-10-07T08:47:16.582Z,16.59
2018-10-07T08:49:45.111Z,16.67
2018-10-07T08:52:14.044Z,17.13
2018-10-07T08:54:42.433Z,16.81
2018-10-07T08:57:11.369Z,17.08
2018-10-07T08:59:39.993Z,17.46
2018-10-07T09:02:08.481Z,17.09
2018-10-07T09:04:37.171Z,17.02
2018-10-07T09:07:05.403Z,17.20
2018-10-07T09:09:33.669Z,17.35
2018-10-07T09:12:01.975Z,17.51
2018-10-07T09:14:30.573Z,18.38
2018-10-07T09:16:58.971Z,18.83
2018-10-07T09:19:27.386Z,18.22
2018-10-07T09:21:55.789Z,18.46
2018-10-07T09:24:24.221Z,18.61
2018-10-07T09:26:53.027Z,18.25
2018-10-07T09:29:21.622Z,18.11
2018-10-07T09:31:50.879Z,18.49
2018-10-07T09:34:19.476Z,18.61
2018-10-07T09:36:48.011Z,18.78
2018-10-07T09:39:16.443Z,18.49
2018-10-07T09:41:44.927Z,18.70
2018-10-07T09:44:13.462Z,19.16
2018-10-07T09:46:42.081Z,19.44
2018-10-07T09:49:10.780Z,19.09
2018-10-07T09:51:39.142Z,19.41
2018-10-07T09:54:07.503Z,19.87
2018-10-07T09:56:36.274Z,19.62
2018-10-07T09:59:05.597Z,19.93
2018-10-07T10:01:34.512Z,20.12
2018-10-07T10:04:03.080Z,19.69
2018-10-07T10:06:32.071Z,19.82
2018-10-07T10:09:00.813Z,19.97
2018-10-07T10:11:29.324Z,20.32
2018-10-07T10:13:57.671Z,20.40
2018-10-07T10:16:33.684Z,20.38
2018-10-07T10:19:04.419Z,20.61
2018-10-07T10:21:37.722Z,20.70
2018-10-07T10:24:16.403Z,20.23
2018-10-07T10:29:02.102Z,20.39
2018-10-07T10:31:43.096Z,20.56
2018-10-07T10:34:14.731Z,20.49
2018-10-07T10:36:49.941Z,20.69
2018-10-07T10:39:54.459Z,21.09
2018-10-07T10:43:01.549Z,21.16
2018-10-07T10:45:33.535Z,21.27
2018-10-07T10:48:18.778Z,21.61
2018-10-07T10:51:53.166Z,21.31
2018-10-07T10:54:31.503Z,21.31
2018-10-07T10:57:05.484Z,21.47
2018-10-07T10:59:41.828Z,21.39
2018-10-07T11:02:30.005Z,21.28
2018-10-07T11:05:09.508Z,21.49
2018-10-07T11:08:00.176Z,21.75
2018-10-07T11:10:38.173Z,22.19
2018-10-07T11:13:25.182Z,22.50
2018-10-07T11:16:04.560Z,22.32
2018-10-07T11:21:56.222Z,22.18
2018-10-07T11:24:34.828Z,21.83
2018-10-07T11:27:08.948Z,21.74
2018-10-07T11:29:46.316Z,21.85
2018-10-07T11:34:27.139Z,21.98
2018-10-07T11:38:04.305Z,21.91
2018-10-07T11:40:44.806Z,22.40
2018-10-07T11:43:22.677Z,22.67
2018-10-07T11:47:59.053Z,22.52
2018-10-07T11:51:04.084Z,22.22
2018-10-07T11:54:10.465Z,22.28
2018-10-07T11:56:39.246Z,22.37
2018-10-07T11:59:07.817Z,22.53
2018-10-07T12:01:36.463Z,22.62
2018-10-07T12:04:04.969Z,22.75
2018-10-07T12:06:33.436Z,22.74
2018-10-07T12:09:02.096Z,22.94
2018-10-07T12:11:30.494Z,23.11
2018-10-07T12:13:59.007Z,23.13
2018-10-07T12:16:27.777Z,22.80
2018-10-07T12:18:56.573Z,22.69
2018-10-07T12:21:25.582Z,22.96
2018-10-07T12:23:54.453Z,22.86
2018-10-07T12:26:22.931Z,22.61
2018-10-07T12:28:51.431Z,22.47
2018-10-07T12:31:19.657Z,22.78
2018-10-07T12:33:48.826Z,22.95
2018-10-07T12:36:17.595Z,23.00
2018-10-07T12:38:46.273Z,23.18
2018-10-07T12:41:15.119Z,23.01
2018-10-07T12:43:44.540Z,23.03
2018-10-07T12:46:13.294Z,22.76
2018-10-07T12:48:42.597Z,22.88
2018-10-07T12:51:11.707Z,22.89
2018-10-07T12:53:41.055Z,22.92
2018-10-07T12:56:10.561Z,22.71
2018-10-07T12:58:39.994Z,22.70
2018-10-07T13:01:09.813Z,22.73
2018-10-07T13:03:39.739Z,22.73
2018-10-07T13:06:08.845Z,22.74
2018-10-07T13:08:38.264Z,22.63
2018-10-07T13:11:08.211Z,22.80
2018-10-07T13:13:37.929Z,22.70
2018-10-07T13:16:07.114Z,22.74
2018-10-07T13:18:37.251Z,22.58
2018-10-07T13:21:07.656Z,22.68
2018-10-07T13:23:37.184Z,22.71
2018-10-07T13:26:06.186Z,22.39
2018-10-07T13:28:35.750Z,22.48
2018-10-07T13:31:05.334Z,22.61
2018-10-07T13:33:34.481Z,22.50
2018-10-07T13:36:03.887Z,22.39
2018-10-07T13:38:32.710Z,22.35
2018-10-07T13:41:02.049Z,22.33
2018-10-07T13:43:30.923Z,22.12
2018-10-07T13:46:00.206Z,21.88
2018-10-07T13:48:28.918Z,21.81
2018-10-07T13:50:57.670Z,21.90
2018-10-07T13:53:26.570Z,21.68
2018-10-07T13:55:55.272Z,21.72
2018-10-07T13:58:24.908Z,21.70
2018-10-07T14:00:54.105Z,21.92
2018-10-07T14:03:22.643Z,21.67
2018-10-07T14:05:51.268Z,21.57
2018-10-07T14:08:19.781Z,21.54
2018-10-07T14:10:48.288Z,21.37
2018-10-07T14:13:16.971Z,21.08
2018-10-07T14:15:45.854Z,20.87
2018-10-07T14:18:14.058Z,20.67
2018-10-07T14:20:42.319Z,20.51
2018-10-07T14:23:10.627Z,20.38
2018-10-07T14:25:38.941Z,20.24
2018-10-07T14:28:08.341Z,20.28
2018-10-07T14:30:36.625Z,19.85
2018-10-07T14:33:05.207Z,19.58
2018-10-07T14:35:33.305Z,19.43
2018-10-07T14:38:01.670Z,19.18
2018-10-07T14:40:30.008Z,19.03
2018-10-07T14:42:58.209Z,18.83
2018-10-07T14:45:26.426Z,18.64
2018-10-07T14:47:54.999Z,18.27
2018-10-07T14:50:23.272Z,17.99
2018-10-07T14:52:51.541Z,17.70
2018-10-07T14:55:19.881Z,17.62
2018-10-07T14:57:48.147Z,17.41
2018-10-07T15:00:16.439Z,17.23
2018-10-07T15:02:44.679Z,17.08
2018-10-07T15:05:12.743Z,17.03
2018-10-07T15:07:41.062Z,16.96
2018-10-07T15:10:09.769Z,16.98
2018-10-07T15:12:38.503Z,17.00
2018-10-07T15:15:07.072Z,16.83
2018-10-07T15:17:35.431Z,16.73
2018-10-07T15:20:03.797Z,16.59
2018-10-07T15:22:32.355Z,16.47
2018-10-07T15:25:01.674Z,16.35
2018-10-07T15:27:30.090Z,16.23
2018-10-07T15:29:58.536Z,16.14
2018-10-07T15:32:27.229Z,16.12
2018-10-07T15:34:55.667Z,16.03
2018-10-07T15:37:24.044Z,15.86
2018-10-07T15:39:52.693Z,15.78
2018-10-07T15:42:21.226Z,15.62
2018-10-07T15:44:49.659Z,15.53
2018-10-07T15:47:18.257Z,15.40
2018-10-07T15:49:46.741Z,15.29
2018-10-07T15:52:15.035Z,15.16
2018-10-07T15:54:43.801Z,15.05
2018-10-07T15:57:12.303Z,14.91
2018-10-07T15:59:40.756Z,14.80
2018-10-07T16:02:09.348Z,14.70
2018-10-07T16:04:37.740Z,14.60
2018-10-07T16:07:06.314Z,14.49
2018-10-07T16:09:34.587Z,14.40
2018-10-07T16:12:02.898Z,14.31
2018-10-07T16:14:31.400Z,14.24
2018-10-07T16:16:59.971Z,14.20
2018-10-07T16:19:28.412Z,14.79
2018-10-07T16:21:56.912Z,14.80
2018-10-07T16:24:25.343Z,14.50
2018-10-07T16:26:54.181Z,14.36
2018-10-07T16:29:23.008Z,14.10
2018-10-07T16:31:51.647Z,14.09
2018-10-07T16:34:20.080Z,14.09
2018-10-07T16:36:48.485Z,13.92
2018-10-07T16:39:16.998Z,13.96
2018-10-07T16:41:45.502Z,13.98
2018-10-07T16:44:14.065Z,13.95
2018-10-07T16:46:42.416Z,13.73
2018-10-07T16:49:10.970Z,13.59
2018-10-07T16:51:39.428Z,13.46
2018-10-07T16:54:07.794Z,13.36
2018-10-07T16:56:36.347Z,13.36
2018-10-07T16:59:04.870Z,13.42
2018-10-07T17:01:33.255Z,13.43
2018-10-07T17:04:01.647Z,13.41
2018-10-07T17:06:30.233Z,13.69
2018-10-07T17:08:58.820Z,14.10
2018-10-07T17:11:27.183Z,14.09
2018-10-07T17:13:55.664Z,14.19
2018-10-07T17:16:24.211Z,13.86
2018-10-07T17:18:52.891Z,13.63
2018-10-07T17:21:21.411Z,13.41
2018-10-07T17:23:49.805Z,13.27
2018-10-07T17:26:18.249Z,13.40
2018-10-07T17:28:51.139Z,13.18
2018-10-07T17:31:23.512Z,12.91
2018-10-07T17:33:55.171Z,12.71
2018-10-07T17:36:27.328Z,12.75
2018-10-07T17:38:58.375Z,12.62
2018-10-07T17:41:29.772Z,12.58
2018-10-07T17:44:01.137Z,12.50
2018-10-07T17:46:30.179Z,12.49
2018-10-07T17:49:01.478Z,12.53
2018-10-07T17:51:30.581Z,12.56
2018-10-07T17:53:58.925Z,12.50
2018-10-07T17:56:27.259Z,12.42
2018-10-07T17:58:55.700Z,12.31
2018-10-07T18:01:24.155Z,12.40
2018-10-07T18:03:52.390Z,12.26
2018-10-07T18:06:21.217Z,12.16
2018-10-07T18:08:49.964Z,12.10
2018-10-07T18:11:18.730Z,12.03
2018-10-07T18:13:47.385Z,11.99
2018-10-07T18:16:15.792Z,11.94
2018-10-07T18:18:44.354Z,11.89
2018-10-07T18:21:12.980Z,11.84
2018-10-07T18:23:41.334Z,11.80
2018-10-07T18:26:09.712Z,11.81
2018-10-07T18:28:39.082Z,11.80
2018-10-07T18:31:07.777Z,11.76
2018-10-07T18:33:36.330Z,11.96
2018-10-07T18:36:05.096Z,12.06
2018-10-07T18:38:34.386Z,11.88
2018-10-07T18:41:02.783Z,11.81
2018-10-07T18:43:31.285Z,11.70
2018-10-07T18:45:59.581Z,11.56
2018-10-07T18:48:27.868Z,11.44
2018-10-07T18:50:56.159Z,11.39
2018-10-07T18:53:24.318Z,11.35
2018-10-07T18:55:52.488Z,11.27
2018-10-07T18:58:20.898Z,11.23
2018-10-07T19:00:49.083Z,11.20
2018-10-07T19:03:17.279Z,11.14
2018-10-07T19:05:45.613Z,11.09
2018-10-07T19:08:14.528Z,11.14
2018-10-07T19:10:43.296Z,11.08
2018-10-07T19:13:12.239Z,11.03
2018-10-07T19:15:40.538Z,11.00
2018-10-07T19:18:08.673Z,11.20
2018-10-07T19:20:37.885Z,11.52
2018-10-07T19:23:06.300Z,12.01
2018-10-07T19:25:34.503Z,12.08
2018-10-07T19:28:02.863Z,11.84
2018-10-07T19:30:31.617Z,11.98
2018-10-07T19:32:59.969Z,12.09
2018-10-07T19:35:28.183Z,11.99
2018-10-07T19:37:57.327Z,11.79
2018-10-07T19:40:26.322Z,11.71
2018-10-07T19:42:54.869Z,11.51
2018-10-07T19:45:23.434Z,11.57
2018-10-07T19:47:51.921Z,11.69
2018-10-07T19:50:20.126Z,11.69
2018-10-07T19:52:48.954Z,11.93
2018-10-07T19:55:17.294Z,11.73
2018-10-07T19:57:47.883Z,11.40
2018-10-07T20:00:16.256Z,11.32
2018-10-07T20:02:44.636Z,11.48
2018-10-07T20:05:12.887Z,11.49
2018-10-07T20:07:42.064Z,11.52
2018-10-07T20:10:10.222Z,11.80
2018-10-07T20:12:38.415Z,11.57
2018-10-07T20:15:06.649Z,11.50
2018-10-07T20:17:34.712Z,11.27
2018-10-07T20:20:02.869Z,11.39
2018-10-07T20:22:30.985Z,11.45
2018-10-07T20:24:59.111Z,11.88
2018-10-07T20:27:27.282Z,11.78
2018-10-07T20:29:55.591Z,11.40
2018-10-07T20:32:23.846Z,11.27
2018-10-07T20:34:52.035Z,11.30
2018-10-07T20:37:20.134Z,11.18
2018-10-07T20:39:48.270Z,10.97
2018-10-07T20:42:16.459Z,11.07
2018-10-07T20:44:44.502Z,11.06
2018-10-07T20:47:12.589Z,11.12
2018-10-07T20:49:40.721Z,11.22
2018-10-07T20:52:08.947Z,10.86
2018-10-07T20:54:36.923Z,10.87
2018-10-07T20:57:05.005Z,10.98
2018-10-07T20:59:33.097Z,10.65
2018-10-07T21:02:01.217Z,10.43
2018-10-07T21:04:29.682Z,10.39
2018-10-07T21:06:57.890Z,10.38
2018-10-07T21:09:25.959Z,10.21
2018-10-07T21:11:54.133Z,10.05
2018-10-07T21:14:22.187Z,9.98
2018-10-07T21:16:50.245Z,9.88
2018-10-07T21:19:18.273Z,9.80
2018-10-07T21:21:46.521Z,9.74
2018-10-07T21:24:14.726Z,9.68
2018-10-07T21:26:42.777Z,9.63
2018-10-07T21:29:10.846Z,9.55
2018-10-07T21:31:38.948Z,9.49
2018-10-07T21:34:07.184Z,9.47
2018-10-07T21:36:35.219Z,9.43
2018-10-07T21:39:04.495Z,9.43
2018-10-07T21:41:32.603Z,9.40
2018-10-07T21:44:00.628Z,9.41
2018-10-07T21:46:28.811Z,9.41
2018-10-07T21:48:56.864Z,9.46
2018-10-07T21:51:24.921Z,9.40
2018-10-07T21:53:52.923Z,9.33
2018-10-07T21:56:21.000Z,9.32
2018-10-07T21:58:49.178Z,9.36
2018-10-07T22:01:17.295Z,9.33
2018-10-07T22:03:45.479Z,9.33
2018-10-07T22:06:13.728Z,9.25
2018-10-07T22:08:41.882Z,9.19
2018-10-07T22:11:10.046Z,9.16
2018-10-07T22:13:38.225Z,9.15
2018-10-07T22:16:06.387Z,9.11
2018-10-07T22:18:34.594Z,9.09
2018-10-07T22:21:02.714Z,9.09
2018-10-07T22:23:30.910Z,9.08
2018-10-07T22:25:59.236Z,9.05
2018-10-07T22:28:27.417Z,9.04
2018-10-07T22:30:55.472Z,9.06
2018-10-07T22:33:23.510Z,9.06
2018-10-07T22:35:51.598Z,9.02
2018-10-07T22:38:19.573Z,8.98
2018-10-07T22:40:47.881Z,8.96
2018-10-07T22:43:15.976Z,9.01
2018-10-07T22:45:44.008Z,8.91
2018-10-07T22:48:12.099Z,8.87
2018-10-07T22:50:40.178Z,8.87
2018-10-07T22:53:08.202Z,8.93
2018-10-07T22:55:36.285Z,8.90
2018-10-07T22:58:04.317Z,8.86
2018-10-07T23:00:32.500Z,8.78
2018-10-07T23:03:00.513Z,8.76
2018-10-07T23:05:28.766Z,8.74
2018-10-07T23:07:56.841Z,8.71
2018-10-07T23:10:24.844Z,8.74
2018-10-07T23:12:52.905Z,8.75
2018-10-07T23:15:20.926Z,8.70
2018-10-07T23:17:48.980Z,8.67
2018-10-07T23:20:16.996Z,8.72
2018-10-07T23:22:44.981Z,8.73
2018-10-07T23:25:13.037Z,8.73
2018-10-07T23:27:41.148Z,8.73
2018-10-07T23:30:09.203Z,8.67
2018-10-07T23:32:37.293Z,8.68
2018-10-07T23:35:05.333Z,8.64
2018-10-07T23:37:33.487Z,8.51
2018-10-07T23:40:01.725Z,8.46
2018-10-07T23:42:29.749Z,8.37
2018-10-07T23:44:57.995Z,8.35
2018-10-07T23:47:26.034Z,8.36
2018-10-07T23:49:54.086Z,8.32
2018-10-07T23:52:22.512Z,8.28
2018-10-07T23:54:50.651Z,8.29
2018-10-07T23:57:18.678Z,8.21
2018-10-07T23:59:46.981Z,8.14
